createdAt,value
2018-04-17T00:00:38.187Z,5.67
2018-04-17T00:03:04.866Z,6.60
2018-04-17T00:05:31.552Z,6.50
2018-04-17T00:07:58.259Z,6.53
2018-04-17T00:10:24.938Z,6.63
2018-04-17T00:12:51.635Z,7.40
2018-04-17T00:15:18.307Z,4.70
2018-04-17T00:17:45.004Z,4.20
2018-04-17T00:20:11.749Z,3.50
2018-04-17T00:22:38.444Z,3.83
2018-04-17T00:25:05.176Z,6.60
2018-04-17T00:27:31.879Z,7.37
2018-04-17T00:29:58.552Z,6.73
2018-04-17T00:32:25.380Z,3.93
2018-04-17T00:34:52.094Z,3.23
2018-04-17T00:37:18.788Z,5.07
2018-04-17T00:39:45.504Z,3.53
2018-04-17T00:42:12.206Z,3.90
2018-04-17T00:44:38.884Z,5.83
2018-04-17T00:47:05.636Z,6.90
2018-04-17T00:49:32.325Z,6.30
2018-04-17T00:51:59.052Z,6.30
2018-04-17T00:54:25.721Z,6.67
2018-04-17T00:56:52.475Z,6.30
2018-04-17T00:59:19.145Z,4.57
2018-04-17T01:01:45.923Z,8.77
2018-04-17T01:04:12.648Z,7.60
2018-04-17T01:06:39.338Z,8.40
2018-04-17T01:09:06.023Z,6.10
2018-04-17T01:11:32.727Z,4.80
2018-04-17T01:13:59.430Z,2.77
2018-04-17T01:16:26.109Z,2.80
2018-04-17T01:18:52.803Z,3.63
2018-04-17T01:21:19.470Z,3.57
2018-04-17T01:23:46.148Z,4.73
2018-04-17T01:26:12.989Z,4.87
2018-04-17T01:28:39.667Z,3.70
2018-04-17T01:31:06.364Z,4.47
2018-04-17T01:33:33.036Z,3.60
2018-04-17T01:35:59.731Z,2.97
2018-04-17T01:38:26.450Z,3.70
2018-04-17T01:40:53.140Z,3.67
2018-04-17T01:43:19.855Z,4.93
2018-04-17T01:45:46.536Z,4.97
2018-04-17T01:48:13.228Z,4.47
2018-04-17T01:50:39.933Z,4.53
2018-04-17T01:53:06.866Z,4.93
2018-04-17T01:55:33.540Z,6.00
2018-04-17T01:58:00.242Z,3.93
2018-04-17T02:00:26.915Z,3.90
2018-04-17T02:02:53.612Z,4.20
2018-04-17T02:05:20.291Z,3.93
2018-04-17T02:07:47.091Z,4.23
2018-04-17T02:10:13.764Z,3.80
2018-04-17T02:12:40.591Z,6.07
2018-04-17T02:15:07.281Z,5.00
2018-04-17T02:17:33.956Z,6.60
2018-04-17T02:20:00.647Z,5.90
2018-04-17T02:22:27.325Z,5.40
2018-04-17T02:24:54.260Z,3.47
2018-04-17T02:27:20.996Z,4.40
2018-04-17T02:29:47.697Z,4.13
2018-04-17T02:32:14.391Z,5.10
2018-04-17T02:34:41.058Z,5.90
2018-04-17T02:37:07.763Z,5.23
2018-04-17T02:39:34.451Z,6.10
2018-04-17T02:42:01.115Z,4.83
2018-04-17T02:44:27.884Z,3.33
2018-04-17T02:46:54.571Z,3.30
2018-04-17T02:49:21.249Z,3.03
2018-04-17T02:51:47.935Z,4.13
2018-04-17T02:54:14.687Z,5.17
2018-04-17T02:56:41.363Z,7.00
2018-04-17T02:59:08.196Z,7.73
2018-04-17T03:01:34.892Z,6.50
2018-04-17T03:04:01.694Z,6.50
2018-04-17T03:06:28.364Z,6.90
2018-04-17T03:08:55.057Z,3.73
2018-04-17T03:11:21.806Z,2.97
2018-04-17T03:13:48.715Z,2.53
2018-04-17T03:16:15.421Z,3.47
2018-04-17T03:18:42.112Z,4.27
2018-04-17T03:21:08.815Z,6.40
2018-04-17T03:23:35.503Z,6.87
2018-04-17T03:26:02.243Z,8.30
2018-04-17T03:28:28.920Z,8.70
2018-04-17T03:30:55.619Z,8.50
2018-04-17T03:33:22.296Z,5.43
2018-04-17T03:35:48.983Z,3.23
2018-04-17T03:38:15.678Z,3.20
2018-04-17T03:40:42.356Z,5.50
2018-04-17T03:43:09.062Z,4.10
2018-04-17T03:45:35.741Z,4.20
2018-04-17T03:48:02.432Z,3.83
2018-04-17T03:50:29.111Z,5.67
2018-04-17T03:52:55.930Z,6.77
2018-04-17T03:55:22.718Z,6.80
2018-04-17T03:57:49.404Z,5.10
2018-04-17T04:00:16.240Z,6.53
2018-04-17T04:02:42.960Z,4.93
2018-04-17T04:05:09.733Z,6.10
2018-04-17T04:07:36.498Z,6.93
2018-04-17T04:10:03.195Z,5.50
2018-04-17T04:12:29.888Z,3.73
2018-04-17T04:14:56.597Z,3.30
2018-04-17T04:17:29.197Z,4.30
2018-04-17T04:20:01.848Z,5.50
2018-04-17T04:22:34.467Z,6.60
2018-04-17T04:25:15.892Z,7.93
2018-04-17T04:27:42.580Z,7.30
2018-04-17T04:30:09.331Z,4.90
2018-04-17T04:32:36.039Z,4.13
2018-04-17T04:35:02.731Z,4.50
2018-04-17T04:37:29.406Z,5.40
2018-04-17T04:39:56.084Z,5.20
2018-04-17T04:42:22.822Z,6.50
2018-04-17T04:44:49.505Z,8.40
2018-04-17T04:47:16.200Z,7.60
2018-04-17T04:49:42.921Z,8.40
2018-04-17T04:52:09.601Z,4.23
2018-04-17T04:54:36.280Z,4.90
2018-04-17T04:57:03.158Z,5.33
2018-04-17T04:59:29.844Z,7.63
2018-04-17T05:01:56.545Z,6.30
2018-04-17T05:04:23.231Z,6.53
2018-04-17T05:06:49.953Z,4.63
2018-04-17T05:09:16.626Z,4.83
2018-04-17T05:11:43.322Z,5.80
2018-04-17T05:14:10.016Z,6.97
2018-04-17T05:16:36.723Z,7.30
2018-04-17T05:19:03.457Z,8.10
2018-04-17T05:21:30.131Z,7.07
2018-04-17T05:23:56.956Z,6.47
2018-04-17T05:26:23.657Z,6.40
2018-04-17T05:28:50.344Z,5.73
2018-04-17T05:31:17.039Z,6.53
2018-04-17T05:33:43.715Z,6.53
2018-04-17T05:36:10.398Z,7.73
2018-04-17T05:38:37.083Z,8.33
2018-04-17T05:41:03.836Z,9.23
2018-04-17T05:43:30.535Z,9.73
2018-04-17T05:45:57.423Z,9.10
2018-04-17T05:48:24.104Z,9.33
2018-04-17T05:50:50.788Z,10.70
2018-04-17T05:53:17.556Z,12.07
2018-04-17T05:55:44.259Z,10.13
2018-04-17T05:58:10.992Z,12.43
2018-04-17T06:00:37.684Z,9.90
2018-04-17T06:03:04.374Z,11.17
2018-04-17T06:05:31.160Z,12.93
2018-04-17T06:07:57.868Z,12.57
2018-04-17T06:10:24.589Z,13.80
2018-04-17T06:12:51.259Z,14.20
2018-04-17T06:15:18.060Z,13.50
2018-04-17T06:17:44.744Z,13.93
2018-04-17T06:20:11.456Z,13.50
2018-04-17T06:22:38.191Z,13.20
2018-04-17T06:25:04.984Z,13.50
2018-04-17T06:27:31.724Z,15.57
2018-04-17T06:29:58.400Z,14.43
2018-04-17T06:32:25.096Z,13.27
2018-04-17T06:34:51.936Z,13.10
2018-04-17T06:37:18.615Z,13.60
2018-04-17T06:39:45.311Z,14.50
2018-04-17T06:42:12.036Z,14.07
2018-04-17T06:44:38.724Z,15.37
2018-04-17T06:47:05.540Z,13.50
2018-04-17T06:49:32.235Z,14.07
2018-04-17T06:51:58.999Z,13.27
2018-04-17T06:54:25.808Z,12.97
2018-04-17T06:56:52.531Z,12.77
2018-04-17T06:59:19.383Z,12.70
2018-04-17T07:01:46.100Z,12.33
2018-04-17T07:04:12.921Z,13.70
2018-04-17T07:06:39.608Z,14.30
2018-04-17T07:09:06.451Z,14.20
2018-04-17T07:11:33.141Z,14.20
2018-04-17T07:13:59.849Z,14.87
2018-04-17T07:16:26.537Z,15.97
2018-04-17T07:18:53.231Z,16.53
2018-04-17T07:21:19.961Z,15.10
2018-04-17T07:23:46.721Z,15.60
2018-04-17T07:26:13.376Z,14.37
2018-04-17T07:28:40.110Z,14.57
2018-04-17T07:31:07.001Z,15.87
2018-04-17T07:33:33.682Z,15.33
2018-04-17T07:36:00.411Z,16.17
2018-04-17T07:38:27.099Z,15.50
2018-04-17T07:40:53.800Z,16.30
2018-04-17T07:43:20.480Z,14.90
2018-04-17T07:45:47.185Z,15.80
2018-04-17T07:48:19.615Z,15.87
2018-04-17T07:50:46.312Z,14.73
2018-04-17T07:53:12.997Z,14.10
2018-04-17T07:55:39.727Z,14.80
2018-04-17T07:58:06.407Z,13.73
2018-04-17T08:00:33.092Z,13.80
2018-04-17T08:02:59.824Z,13.20
2018-04-17T08:05:26.515Z,15.07
2018-04-17T08:07:53.243Z,14.23
2018-04-17T08:10:19.932Z,14.33
2018-04-17T08:12:46.647Z,14.20
2018-04-17T08:15:13.338Z,13.90
2018-04-17T08:17:40.115Z,14.23
2018-04-17T08:20:06.756Z,14.37
2018-04-17T08:22:33.495Z,15.53
2018-04-17T08:25:00.210Z,14.17
2018-04-17T08:27:26.915Z,13.50
2018-04-17T08:29:53.588Z,13.70
2018-04-17T08:32:20.328Z,12.67
2018-04-17T08:34:47.007Z,13.37
2018-04-17T08:37:13.706Z,13.03
2018-04-17T08:39:40.400Z,14.37
2018-04-17T08:42:07.114Z,13.77
2018-04-17T08:44:33.796Z,13.50
2018-04-17T08:47:00.528Z,14.00
2018-04-17T08:49:27.218Z,15.03
2018-04-17T08:51:53.920Z,13.43
2018-04-17T08:54:20.661Z,13.77
2018-04-17T08:56:47.355Z,13.10
2018-04-17T08:59:14.067Z,14.20
2018-04-17T09:01:40.771Z,14.27
2018-04-17T09:06:40.709Z,13.23
2018-04-17T09:09:07.398Z,15.60
2018-04-17T09:11:34.118Z,14.97
2018-04-17T09:14:00.812Z,13.30
2018-04-17T09:16:27.635Z,13.63
2018-04-17T09:18:54.347Z,14.00
2018-04-17T09:21:21.169Z,14.47
2018-04-17T09:23:47.855Z,15.10
2018-04-17T09:26:14.569Z,14.13
2018-04-17T09:28:41.262Z,14.83
2018-04-17T09:31:07.968Z,16.33
2018-04-17T09:33:34.661Z,15.30
2018-04-17T09:36:01.358Z,14.57
2018-04-17T09:38:28.121Z,13.93
2018-04-17T09:40:54.857Z,14.77
2018-04-17T09:43:21.576Z,14.03
2018-04-17T09:45:48.298Z,15.40
2018-04-17T09:48:14.991Z,13.33
2018-04-17T09:50:41.700Z,13.90
2018-04-17T09:53:08.431Z,12.87
2018-04-17T09:55:35.102Z,12.90
2018-04-17T09:58:01.900Z,13.57
2018-04-17T10:00:28.596Z,13.50
2018-04-17T10:02:55.293Z,13.87
2018-04-17T10:05:21.988Z,13.13
2018-04-17T10:07:48.687Z,12.87
2018-04-17T10:10:15.379Z,14.30
2018-04-17T10:12:42.085Z,14.83
2018-04-17T10:15:08.803Z,14.27
2018-04-17T10:17:35.603Z,14.40
2018-04-17T10:20:02.283Z,14.47
2018-04-17T10:22:29.107Z,16.60
2018-04-17T10:24:55.795Z,16.07
2018-04-17T10:27:22.563Z,16.47
2018-04-17T10:29:49.325Z,16.30
2018-04-17T10:32:15.995Z,17.40
2018-04-17T10:34:42.700Z,17.07
2018-04-17T10:37:09.393Z,15.90
2018-04-17T10:39:36.112Z,15.90
2018-04-17T10:42:02.804Z,16.40
2018-04-17T10:44:29.519Z,16.60
2018-04-17T10:46:56.224Z,14.67
2018-04-17T10:49:22.936Z,16.03
2018-04-17T10:51:49.611Z,13.07
2018-04-17T10:54:16.299Z,16.80
2018-04-17T10:56:43.031Z,12.07
2018-04-17T10:59:09.720Z,10.07
2018-04-17T11:01:36.423Z,11.60
2018-04-17T11:04:03.123Z,11.47
2018-04-17T11:06:29.827Z,13.80
2018-04-17T11:08:56.521Z,11.90
2018-04-17T11:11:23.196Z,11.83
2018-04-17T11:13:49.972Z,13.53
2018-04-17T11:16:16.695Z,12.93
2018-04-17T11:18:43.387Z,10.97
2018-04-17T11:21:10.075Z,13.30
2018-04-17T11:23:36.800Z,14.60
2018-04-17T11:26:03.484Z,15.77
2018-04-17T11:28:30.248Z,14.77
2018-04-17T11:30:56.935Z,13.67
2018-04-17T11:33:23.645Z,15.40
2018-04-17T11:35:50.346Z,15.53
2018-04-17T11:38:17.068Z,16.37
2018-04-17T11:40:43.768Z,17.03
2018-04-17T11:43:10.464Z,16.17
2018-04-17T11:45:37.263Z,16.63
2018-04-17T11:48:03.966Z,13.80
2018-04-17T11:50:30.816Z,14.53
2018-04-17T11:52:57.533Z,13.03
2018-04-17T11:55:24.268Z,12.87
2018-04-17T11:57:50.994Z,14.03
2018-04-17T12:00:17.690Z,13.27
2018-04-17T12:02:44.419Z,13.30
2018-04-17T12:05:11.096Z,14.53
2018-04-17T12:07:37.818Z,12.47
2018-04-17T12:10:04.716Z,13.80
2018-04-17T12:12:31.439Z,12.50
2018-04-17T12:14:58.125Z,12.47
2018-04-17T12:17:24.840Z,12.30
2018-04-17T12:19:51.529Z,12.40
2018-04-17T12:22:18.233Z,12.10
2018-04-17T12:24:44.925Z,11.57
2018-04-17T12:27:11.617Z,14.47
2018-04-17T12:29:38.338Z,14.50
2018-04-17T12:32:05.040Z,13.73
2018-04-17T12:34:31.783Z,13.60
2018-04-17T12:36:58.583Z,12.07
2018-04-17T12:39:25.337Z,11.80
2018-04-17T12:41:52.003Z,13.20
2018-04-17T12:44:18.697Z,11.83
2018-04-17T12:46:45.395Z,12.50
2018-04-17T12:49:12.088Z,10.90
2018-04-17T12:51:38.787Z,12.80
2018-04-17T12:54:05.484Z,13.10
2018-04-17T12:56:32.264Z,13.73
2018-04-17T12:58:58.970Z,12.50
2018-04-17T13:01:25.685Z,11.83
2018-04-17T13:03:52.411Z,12.10
2018-04-17T13:06:19.099Z,10.73
2018-04-17T13:08:45.803Z,12.90
2018-04-17T13:11:12.492Z,11.47
2018-04-17T13:13:39.282Z,13.27
2018-04-17T13:16:06.076Z,13.33
2018-04-17T13:18:32.770Z,12.43
2018-04-17T13:20:59.491Z,12.10
2018-04-17T13:23:26.179Z,12.77
2018-04-17T13:25:53.939Z,13.70
2018-04-17T13:28:20.624Z,13.50
2018-04-17T13:30:47.333Z,12.30
2018-04-17T13:33:14.018Z,11.43
2018-04-17T13:35:40.735Z,13.47
2018-04-17T13:38:07.415Z,15.60
2018-04-17T13:40:34.116Z,11.87
2018-04-17T13:43:00.892Z,11.50
2018-04-17T13:45:27.712Z,11.87
2018-04-17T13:47:54.399Z,12.70
2018-04-17T13:50:21.080Z,14.40
2018-04-17T13:52:47.799Z,15.27
2018-04-17T13:55:14.479Z,13.07
2018-04-17T13:57:41.204Z,17.40
2018-04-17T14:00:08.017Z,14.57
2018-04-17T14:02:34.755Z,12.83
2018-04-17T14:05:01.632Z,13.40
2018-04-17T14:07:28.349Z,14.10
2018-04-17T14:09:55.088Z,12.90
2018-04-17T14:12:21.730Z,13.90
2018-04-17T14:14:48.437Z,13.60
2018-04-17T14:17:15.223Z,12.33
2018-04-17T14:19:41.887Z,13.00
2018-04-17T14:22:08.566Z,11.60
2018-04-17T14:24:35.290Z,11.50
2018-04-17T14:27:02.093Z,13.97
2018-04-17T14:29:28.801Z,11.80
2018-04-17T14:31:55.499Z,14.20
2018-04-17T14:34:22.192Z,13.33
2018-04-17T14:36:49.012Z,15.33
2018-04-17T14:39:15.711Z,13.90
2018-04-17T14:41:42.475Z,13.40
2018-04-17T14:44:09.166Z,12.80
2018-04-17T14:46:35.882Z,13.23
2018-04-17T14:49:02.584Z,12.87
2018-04-17T14:51:29.255Z,13.10
2018-04-17T14:53:55.959Z,11.50
2018-04-17T14:56:22.647Z,13.70
2018-04-17T14:58:49.467Z,11.50
2018-04-17T15:01:16.148Z,12.57
2018-04-17T15:03:42.952Z,12.70
2018-04-17T15:06:09.811Z,12.20
2018-04-17T15:08:36.524Z,12.40
2018-04-17T15:11:03.230Z,12.77
2018-04-17T15:13:29.938Z,10.40
2018-04-17T15:15:56.617Z,12.90
2018-04-17T15:18:23.473Z,12.13
2018-04-17T15:20:50.170Z,12.10
2018-04-17T15:23:16.847Z,10.73
2018-04-17T15:25:43.663Z,11.40
2018-04-17T15:28:10.348Z,11.30
2018-04-17T15:30:37.156Z,12.00
2018-04-17T15:33:03.839Z,11.23
2018-04-17T15:35:30.547Z,11.27
2018-04-17T15:37:57.400Z,12.80
2018-04-17T15:40:24.084Z,10.43
2018-04-17T15:42:50.781Z,10.20
2018-04-17T15:45:17.510Z,12.23
2018-04-17T15:47:44.207Z,12.57
2018-04-17T15:50:10.916Z,11.03
2018-04-17T15:52:37.603Z,11.87
2018-04-17T15:55:04.342Z,11.33
2018-04-17T15:57:31.027Z,10.17
2018-04-17T15:59:57.739Z,9.30
2018-04-17T16:02:24.444Z,8.53
2018-04-17T16:04:51.172Z,9.90
2018-04-17T16:07:17.963Z,9.03
2018-04-17T16:09:44.653Z,10.53
2018-04-17T16:12:11.363Z,8.90
2018-04-17T16:14:38.051Z,10.20
2018-04-17T16:17:04.741Z,8.53
2018-04-17T16:19:31.512Z,8.97
2018-04-17T16:21:58.404Z,9.40
2018-04-17T16:24:25.168Z,10.50
2018-04-17T16:26:51.884Z,10.03
2018-04-17T16:29:18.586Z,9.07
2018-04-17T16:31:45.335Z,9.07
2018-04-17T16:34:12.062Z,9.30
2018-04-17T16:36:38.754Z,8.63
2018-04-17T16:39:05.471Z,9.17
2018-04-17T16:41:32.223Z,8.07
2018-04-17T16:43:58.909Z,9.60
2018-04-17T16:46:25.639Z,9.73
2018-04-17T16:48:52.403Z,8.17
2018-04-17T16:51:19.181Z,9.33
2018-04-17T16:53:45.819Z,13.30
2018-04-17T16:56:12.519Z,9.77
2018-04-17T16:58:39.233Z,10.90
2018-04-17T17:01:05.931Z,9.53
2018-04-17T17:03:32.633Z,8.87
2018-04-17T17:05:59.312Z,9.10
2018-04-17T17:08:26.048Z,10.40
2018-04-17T17:10:52.738Z,8.00
2018-04-17T17:13:19.480Z,8.43
2018-04-17T17:15:46.238Z,8.57
2018-04-17T17:18:12.903Z,6.77
2018-04-17T17:20:39.579Z,7.93
2018-04-17T17:23:06.295Z,8.33
2018-04-17T17:25:33.047Z,7.50
2018-04-17T17:27:59.767Z,7.43
2018-04-17T17:30:26.452Z,8.77
2018-04-17T17:32:53.180Z,8.87
2018-04-17T17:35:19.911Z,7.87
2018-04-17T17:37:46.621Z,9.13
2018-04-17T17:40:13.306Z,7.30
2018-04-17T17:42:39.938Z,6.87
2018-04-17T17:45:06.638Z,7.07
2018-04-17T17:47:33.327Z,7.27
2018-04-17T17:50:00.048Z,7.70
2018-04-17T17:52:26.748Z,7.67
2018-04-17T17:54:53.444Z,6.40
2018-04-17T17:57:20.120Z,7.50
2018-04-17T17:59:47.406Z,7.43
2018-04-17T18:02:14.143Z,6.50
2018-04-17T18:04:40.909Z,7.83
2018-04-17T18:07:07.737Z,6.70
2018-04-17T18:09:34.421Z,6.53
2018-04-17T18:12:01.125Z,7.60
2018-04-17T18:14:27.807Z,7.87
2018-04-17T18:16:54.520Z,7.87
2018-04-17T18:19:21.232Z,8.40
2018-04-17T18:21:48.019Z,8.43
2018-04-17T18:24:14.780Z,8.50
2018-04-17T18:26:41.489Z,16.90
2018-04-17T18:29:08.231Z,73.77
2018-04-17T18:31:34.928Z,28.67
2018-04-17T18:34:01.629Z,9.53
2018-04-17T18:36:28.356Z,8.47
2018-04-17T18:38:55.049Z,9.03
2018-04-17T18:41:21.756Z,7.93
2018-04-17T18:43:48.446Z,8.20
2018-04-17T18:46:15.146Z,9.63
2018-04-17T18:48:41.859Z,8.87
2018-04-17T18:51:08.578Z,8.33
2018-04-17T18:53:35.258Z,7.30
2018-04-17T18:56:02.009Z,7.60
2018-04-17T18:58:28.706Z,8.47
2018-04-17T19:00:55.438Z,9.77
2018-04-17T19:03:22.147Z,10.20
2018-04-17T19:05:48.842Z,8.67
2018-04-17T19:08:15.598Z,9.53
2018-04-17T19:10:42.248Z,8.50
2018-04-17T19:13:08.953Z,9.73
2018-04-17T19:15:35.661Z,10.70
2018-04-17T19:18:02.364Z,10.60
2018-04-17T19:20:29.096Z,9.47
2018-04-17T19:22:55.823Z,9.07
2018-04-17T19:25:22.517Z,10.70
2018-04-17T19:27:49.227Z,10.80
2018-04-17T19:30:15.895Z,10.80
2018-04-17T19:32:42.678Z,10.77
2018-04-17T19:35:09.415Z,11.13
2018-04-17T19:37:36.116Z,11.67
2018-04-17T19:40:02.890Z,10.90
2018-04-17T19:42:29.624Z,11.73
2018-04-17T19:44:56.343Z,11.50
2018-04-17T19:47:23.067Z,11.40
2018-04-17T19:49:49.798Z,10.50
2018-04-17T19:52:16.496Z,11.73
2018-04-17T19:54:43.260Z,12.20
2018-04-17T19:57:09.990Z,11.53
2018-04-17T19:59:36.720Z,10.50
2018-04-17T20:02:03.495Z,13.03
2018-04-17T20:04:30.206Z,10.33
2018-04-17T20:06:56.900Z,13.40
2018-04-17T20:09:23.602Z,12.30
2018-04-17T20:11:50.292Z,13.03
2018-04-17T20:14:17.050Z,13.23
2018-04-17T20:16:43.876Z,10.60
2018-04-17T20:19:10.574Z,11.23
2018-04-17T20:21:37.453Z,11.43
2018-04-17T20:24:04.127Z,10.80
2018-04-17T20:26:30.841Z,10.43
2018-04-17T20:28:57.583Z,12.90
2018-04-17T20:31:24.277Z,10.90
2018-04-17T20:33:51.053Z,12.20
2018-04-17T20:36:17.762Z,13.00
2018-04-17T20:38:44.453Z,13.30
2018-04-17T20:41:11.154Z,12.30
2018-04-17T20:43:37.936Z,13.00
2018-04-17T20:46:04.631Z,12.30
2018-04-17T20:48:31.380Z,13.47
2018-04-17T20:50:58.132Z,11.10
2018-04-17T20:53:24.816Z,13.37
2018-04-17T20:55:51.682Z,13.83
2018-04-17T20:58:18.388Z,13.70
2018-04-17T21:00:45.072Z,15.47
2018-04-17T21:03:11.964Z,13.80
2018-04-17T21:05:38.642Z,13.50
2018-04-17T21:08:05.361Z,15.13
2018-04-17T21:10:32.077Z,15.57
2018-04-17T21:12:58.883Z,15.37
2018-04-17T21:15:25.731Z,16.30
2018-04-17T21:17:52.445Z,14.20
2018-04-17T21:20:19.189Z,14.20
2018-04-17T21:22:45.895Z,14.00
2018-04-17T21:25:12.584Z,12.60
2018-04-17T21:27:39.269Z,13.03
2018-04-17T21:30:05.965Z,12.10
2018-04-17T21:32:32.680Z,11.43
2018-04-17T21:34:59.369Z,12.90
2018-04-17T21:37:26.092Z,14.00
2018-04-17T21:39:52.794Z,14.10
2018-04-17T21:42:19.504Z,14.93
2018-04-17T21:44:46.225Z,14.93
2018-04-17T21:47:12.944Z,14.37
2018-04-17T21:49:39.661Z,15.23
2018-04-17T21:52:06.360Z,13.17
2018-04-17T21:54:33.069Z,13.23
2018-04-17T21:56:59.879Z,15.60
2018-04-17T21:59:26.598Z,16.23
2018-04-17T22:01:53.289Z,16.10
2018-04-17T22:04:20.159Z,16.43
2018-04-17T22:06:46.828Z,14.17
2018-04-17T22:09:13.594Z,12.80
2018-04-17T22:11:40.312Z,11.63
2018-04-17T22:14:07.060Z,12.07
2018-04-17T22:16:33.742Z,10.83
2018-04-17T22:19:00.447Z,12.43
2018-04-17T22:21:27.147Z,13.80
2018-04-17T22:23:53.935Z,14.73
2018-04-17T22:26:20.636Z,13.00
2018-04-17T22:28:47.323Z,12.60
2018-04-17T22:31:14.044Z,12.30
2018-04-17T22:33:40.744Z,14.20
2018-04-17T22:36:07.437Z,12.80
2018-04-17T22:38:34.250Z,13.03
2018-04-17T22:41:00.944Z,10.53
2018-04-17T22:43:27.645Z,11.27
2018-04-17T22:45:54.421Z,8.77
2018-04-17T22:48:21.143Z,10.63
2018-04-17T22:50:48.063Z,11.33
2018-04-17T22:53:14.755Z,10.80
2018-04-17T22:55:41.472Z,14.80
2018-04-17T22:58:08.144Z,14.73
2018-04-17T23:00:34.843Z,14.80
2018-04-17T23:03:01.533Z,14.70
2018-04-17T23:05:28.441Z,14.83
2018-04-17T23:07:55.136Z,14.10
2018-04-17T23:10:21.839Z,11.33
2018-04-17T23:12:48.512Z,8.40
2018-04-17T23:15:15.216Z,8.43
2018-04-17T23:17:42.028Z,8.07
2018-04-17T23:20:08.711Z,8.50
2018-04-17T23:22:35.414Z,8.93
2018-04-17T23:25:02.220Z,12.10
2018-04-17T23:27:28.940Z,12.77
2018-04-17T23:29:55.719Z,8.73
2018-04-17T23:32:22.526Z,8.00
2018-04-17T23:34:49.244Z,9.03
2018-04-17T23:37:15.934Z,10.57
2018-04-17T23:39:42.633Z,9.40
2018-04-17T23:42:09.336Z,9.23
2018-04-17T23:44:36.159Z,8.30
2018-04-17T23:47:02.850Z,7.50
2018-04-17T23:49:29.532Z,9.50
2018-04-17T23:51:56.288Z,8.97
2018-04-17T23:54:22.987Z,5.77
2018-04-17T23:56:49.767Z,6.00
2018-04-17T23:59:16.468Z,10.20
